Time;durP1;ratioP1;P1;durP2;ratioP2;P2;SDS_P1;SDS_P2;PMS_P1;PMS_P2;Temp;Humidity;BMP_temperature;BMP_pressure;BME280_temperature;BME280_humidity;BME280_pressure;Samples;Min_cycle;Max_cycle;Signal;HPM_P1;HPM_P2
2022/08/21 00:00:26;;;;;;;9.27;8.00;;;21.00;1.00;;;;;;5019801;28;20453;-80
2022/08/21 00:02:55;;;;;;;14.60;8.47;;;21.00;1.00;;;;;;5023480;28;20531;-80
2022/08/21 00:05:24;;;;;;;9.33;7.60;;;21.00;1.00;;;;;;5017664;28;20849;-81
2022/08/21 00:07:51;;;;;;;11.40;8.70;;;20.90;1.00;;;;;;5010058;28;20477;-81
2022/08/21 00:10:18;;;;;;;8.97;8.00;;;21.00;1.00;;;;;;5044323;28;20535;-81
2022/08/21 00:12:48;;;;;;;9.43;7.70;;;20.90;1.00;;;;;;5029158;28;20461;-81
2022/08/21 00:15:36;;;;;;;9.90;8.20;;;20.90;1.00;;;;;;5034145;28;20515;-81
2022/08/21 00:18:04;;;;;;;9.07;8.10;;;20.90;1.00;;;;;;5031623;28;20430;-81
2022/08/21 00:20:33;;;;;;;10.27;8.67;;;20.90;1.00;;;;;;5032544;28;20924;-81
2022/08/21 00:23:00;;;;;;;11.47;8.40;;;20.90;1.00;;;;;;5028758;28;20437;-79
2022/08/21 00:25:28;;;;;;;9.30;7.63;;;20.90;1.00;;;;;;5033189;28;20992;-79
2022/08/21 00:27:57;;;;;;;9.43;8.10;;;20.90;1.00;;;;;;5031365;28;20482;-81
2022/08/21 00:30:27;;;;;;;9.90;7.33;;;20.80;1.00;;;;;;5031784;28;21051;-80
2022/08/21 00:32:55;;;;;;;9.07;7.43;;;20.80;1.00;;;;;;5031355;28;20469;-80
2022/08/21 00:35:25;;;;;;;9.17;7.50;;;20.70;1.00;;;;;;5028436;28;20469;-80
2022/08/21 00:37:54;;;;;;;10.20;8.40;;;20.70;1.00;;;;;;5029087;28;20571;-81
2022/08/21 00:40:28;;;;;;;11.23;9.03;;;20.60;1.00;;;;;;5029587;28;20548;-81
2022/08/21 00:42:56;;;;;;;11.07;9.70;;;20.60;1.00;;;;;;5030611;28;20470;-81
2022/08/21 00:45:24;;;;;;;10.23;9.13;;;20.60;1.00;;;;;;5029555;28;20461;-81
2022/08/21 00:47:53;;;;;;;9.17;8.27;;;20.60;1.00;;;;;;5028927;28;20456;-80
2022/08/21 00:50:21;;;;;;;8.70;7.70;;;20.50;1.00;;;;;;5030550;28;20461;-81
2022/08/21 00:52:48;;;;;;;9.60;8.57;;;20.50;1.00;;;;;;5027154;28;20464;-81
2022/08/21 00:55:16;;;;;;;11.30;9.00;;;20.50;1.00;;;;;;5030727;28;20992;-81
2022/08/21 00:57:48;;;;;;;9.80;7.80;;;20.40;1.00;;;;;;5031043;28;22011;-81
2022/08/21 01:00:21;;;;;;;10.10;7.93;;;20.40;1.00;;;;;;5031890;28;20471;-80
2022/08/21 01:02:48;;;;;;;10.27;8.23;;;20.40;1.00;;;;;;5029053;28;20492;-81
2022/08/21 01:05:16;;;;;;;10.60;9.30;;;20.40;1.00;;;;;;5029460;28;20553;-81
2022/08/21 01:07:44;;;;;;;11.03;8.57;;;20.50;1.00;;;;;;5026538;28;20453;-81
2022/08/21 01:10:12;;;;;;;8.17;7.33;;;20.50;1.00;;;;;;5025549;28;20526;-81
2022/08/21 01:12:41;;;;;;;9.13;8.23;;;20.40;1.00;;;;;;5025724;28;20473;-81
2022/08/21 01:15:09;;;;;;;9.33;7.80;;;20.50;1.00;;;;;;5033517;28;20460;-81
2022/08/21 01:17:38;;;;;;;10.20;7.67;;;20.40;1.00;;;;;;5026443;28;20464;-81
2022/08/21 01:20:08;;;;;;;9.10;8.20;;;20.40;1.00;;;;;;5027773;28;20473;-80
2022/08/21 01:22:36;;;;;;;9.27;8.37;;;20.40;1.00;;;;;;5027612;28;20840;-81
2022/08/21 01:25:04;;;;;;;9.30;8.37;;;20.30;1.00;;;;;;5027020;28;20473;-81
2022/08/21 01:27:31;;;;;;;12.10;8.93;;;20.30;1.00;;;;;;5028575;28;20555;-81
2022/08/21 01:30:01;;;;;;;10.50;8.67;;;20.40;1.00;;;;;;5026642;28;20556;-80
2022/08/21 01:32:28;;;;;;;8.87;7.97;;;20.30;1.00;;;;;;5032737;28;20527;-81
2022/08/21 01:34:55;;;;;;;9.33;8.43;;;20.30;1.00;;;;;;5024057;28;20473;-81
2022/08/21 01:37:23;;;;;;;10.50;8.20;;;20.30;1.00;;;;;;5030518;28;20461;-81
2022/08/21 01:39:51;;;;;;;8.97;7.90;;;20.30;1.00;;;;;;5021074;28;20484;-82
2022/08/21 01:42:18;;;;;;;9.03;7.80;;;20.30;1.00;;;;;;5028004;28;20457;-82
2022/08/21 01:44:45;;;;;;;8.90;7.53;;;20.20;1.00;;;;;;5026968;28;20480;-81
2022/08/21 01:47:15;;;;;;;7.87;6.50;;;20.20;1.00;;;;;;5029461;28;20465;-82
2022/08/21 01:49:43;;;;;;;9.10;7.43;;;20.20;1.00;;;;;;5028901;28;20560;-81
2022/08/21 01:52:11;;;;;;;9.10;6.40;;;20.20;1.00;;;;;;5029471;28;20457;-82
2022/08/21 01:54:39;;;;;;;7.83;6.03;;;20.20;1.00;;;;;;5032800;28;20485;-81
2022/08/21 01:57:07;;;;;;;6.50;5.80;;;20.10;1.00;;;;;;5030946;28;20445;-82
2022/08/21 01:59:35;;;;;;;11.63;10.53;;;20.20;1.00;;;;;;5027896;28;20469;-80
2022/08/21 02:02:03;;;;;;;13.47;10.93;;;20.10;1.00;;;;;;5027459;28;20477;-80
2022/08/21 02:04:30;;;;;;;8.50;6.80;;;20.10;1.00;;;;;;5026543;28;20543;-80
2022/08/21 02:06:57;;;;;;;7.43;5.53;;;20.00;1.00;;;;;;5029745;28;20804;-80
2022/08/21 02:09:24;;;;;;;13.20;6.60;;;20.00;1.00;;;;;;5026804;28;20544;-80
2022/08/21 02:11:51;;;;;;;7.90;7.00;;;19.90;1.00;;;;;;5025583;28;20493;-79
2022/08/21 02:14:19;;;;;;;7.50;6.50;;;19.90;1.00;;;;;;5028639;28;20473;-79
2022/08/21 02:16:47;;;;;;;9.83;6.70;;;19.90;1.00;;;;;;5030726;28;20453;-80
2022/08/21 02:19:15;;;;;;;7.70;6.90;;;19.80;1.00;;;;;;5028075;28;20523;-80
2022/08/21 02:21:42;;;;;;;8.37;6.37;;;19.80;1.00;;;;;;5031022;28;20469;-80
2022/08/21 02:24:10;;;;;;;8.53;6.93;;;19.70;1.00;;;;;;5029268;28;20465;-80
2022/08/21 02:26:37;;;;;;;9.97;6.53;;;19.70;1.00;;;;;;5029261;28;20468;-80
2022/08/21 02:29:05;;;;;;;8.83;6.83;;;19.70;1.00;;;;;;5028205;28;21229;-80
2022/08/21 02:31:33;;;;;;;9.00;6.40;;;19.70;1.00;;;;;;5026381;28;20476;-80
2022/08/21 02:34:00;;;;;;;8.30;6.30;;;19.70;1.00;;;;;;5025891;28;21340;-80
2022/08/21 02:36:27;;;;;;;7.70;6.00;;;19.70;1.00;;;;;;5029142;28;20467;-80
2022/08/21 02:38:54;;;;;;;11.13;6.53;;;19.60;1.00;;;;;;5025005;28;20989;-80
2022/08/21 02:41:22;;;;;;;9.33;6.23;;;19.60;1.00;;;;;;5010190;28;20964;-80
2022/08/21 02:43:49;;;;;;;7.57;5.90;;;19.50;1.00;;;;;;5030668;28;20477;-80
2022/08/21 02:46:19;;;;;;;8.40;6.67;;;19.50;1.00;;;;;;5023338;28;20464;-80
2022/08/21 02:48:50;;;;;;;8.07;5.70;;;19.50;1.00;;;;;;5028401;28;20429;-80
2022/08/21 02:51:18;;;;;;;9.47;6.50;;;19.50;1.00;;;;;;5028346;28;20445;-79
2022/08/21 02:53:46;;;;;;;7.53;6.10;;;19.50;1.00;;;;;;5029555;28;20571;-79
2022/08/21 02:56:17;;;;;;;6.80;5.90;;;19.40;1.00;;;;;;5024384;28;20511;-80
2022/08/21 02:58:47;;;;;;;8.13;6.30;;;19.40;1.00;;;;;;5027579;28;20591;-79
2022/08/21 03:01:14;;;;;;;9.57;5.90;;;19.40;1.00;;;;;;5030588;28;20475;-80
2022/08/21 03:03:44;;;;;;;9.80;5.63;;;19.30;1.00;;;;;;5037120;28;20441;-80
2022/08/21 03:06:15;;;;;;;8.50;6.30;;;19.30;1.00;;;;;;5027092;28;20448;-80
2022/08/21 03:08:44;;;;;;;11.77;5.77;;;19.30;1.00;;;;;;5027283;28;20465;-81
2022/08/21 03:11:12;;;;;;;6.63;5.80;;;19.20;1.00;;;;;;5028223;28;20479;-80
2022/08/21 03:13:39;;;;;;;6.40;5.63;;;19.20;1.00;;;;;;5028222;28;20473;-80
2022/08/21 03:16:07;;;;;;;8.17;5.57;;;19.20;1.00;;;;;;5030277;28;20453;-80
2022/08/21 03:18:35;;;;;;;8.53;5.37;;;19.10;1.00;;;;;;5031964;28;20985;-80
2022/08/21 03:21:02;;;;;;;9.47;5.57;;;19.10;1.00;;;;;;5029797;28;20483;-79
2022/08/21 03:23:30;;;;;;;7.00;5.10;;;19.10;1.00;;;;;;5034343;28;20475;-80
2022/08/21 03:25:57;;;;;;;7.07;5.17;;;19.10;1.00;;;;;;5033966;28;20914;-79
2022/08/21 03:28:25;;;;;;;7.60;4.80;;;19.10;1.00;;;;;;5029510;28;21362;-80
2022/08/21 03:30:53;;;;;;;6.50;5.27;;;19.10;1.00;;;;;;5020233;28;20575;-81
2022/08/21 03:33:21;;;;;;;9.20;5.60;;;19.00;1.00;;;;;;5046734;28;20483;-80
2022/08/21 03:35:53;;;;;;;9.13;4.87;;;19.00;1.00;;;;;;5035097;28;20443;-82
2022/08/21 03:38:20;;;;;;;8.67;4.83;;;19.00;1.00;;;;;;5030387;28;20556;-81
2022/08/21 03:40:51;;;;;;;6.23;4.93;;;19.00;1.00;;;;;;5032555;28;20465;-81
2022/08/21 03:43:18;;;;;;;6.97;4.73;;;18.90;1.00;;;;;;5029413;28;20468;-82
2022/08/21 03:45:45;;;;;;;7.03;4.70;;;19.00;1.00;;;;;;5032125;28;20472;-81
2022/08/21 03:48:12;;;;;;;6.90;4.80;;;19.00;1.00;;;;;;5031413;28;20977;-81
2022/08/21 03:50:42;;;;;;;6.73;4.57;;;18.90;1.00;;;;;;5023971;28;20877;-79
2022/08/21 03:53:11;;;;;;;7.70;4.90;;;18.90;1.00;;;;;;5033728;28;20993;-81
2022/08/21 03:55:37;;;;;;;8.03;4.33;;;18.90;1.00;;;;;;5031946;28;20472;-81
2022/08/21 03:58:06;;;;;;;6.23;4.70;;;18.80;1.00;;;;;;5029482;28;20473;-81
2022/08/21 04:00:33;;;;;;;6.90;5.20;;;18.80;1.00;;;;;;5031987;28;20557;-81
2022/08/21 04:03:00;;;;;;;10.40;4.80;;;18.70;1.00;;;;;;5023381;28;20610;-81
2022/08/21 04:05:30;;;;;;;6.63;4.83;;;18.80;1.00;;;;;;5035897;28;20906;-81
2022/08/21 04:08:00;;;;;;;9.73;4.70;;;18.70;1.00;;;;;;5027629;28;20456;-81
2022/08/21 04:10:30;;;;;;;6.43;4.03;;;18.70;1.00;;;;;;5028707;28;20905;-81
2022/08/21 04:12:57;;;;;;;5.80;4.10;;;18.70;1.00;;;;;;5016596;28;20562;-81
2022/08/21 04:15:27;;;;;;;6.57;4.20;;;18.70;1.00;;;;;;5044948;28;21205;-81
2022/08/21 04:17:54;;;;;;;7.63;4.87;;;18.70;1.00;;;;;;5035676;28;20486;-81
2022/08/21 04:20:22;;;;;;;6.37;4.50;;;18.80;1.00;;;;;;5030901;28;20445;-81
2022/08/21 04:22:50;;;;;;;5.87;3.97;;;18.70;1.00;;;;;;5026958;28;20447;-81
2022/08/21 04:25:18;;;;;;;7.50;5.10;;;18.70;1.00;;;;;;5031618;28;20489;-82
2022/08/21 04:27:45;;;;;;;8.00;4.20;;;18.70;1.00;;;;;;5028095;28;20473;-81
2022/08/21 04:30:13;;;;;;;8.33;4.83;;;18.70;1.00;;;;;;5023509;28;20485;-81
2022/08/21 04:32:43;;;;;;;6.93;4.47;;;18.70;1.00;;;;;;5037954;28;20943;-81
2022/08/21 04:35:11;;;;;;;7.97;4.00;;;18.70;1.00;;;;;;5031984;28;20492;-81
2022/08/21 04:37:41;;;;;;;10.50;4.80;;;18.70;1.00;;;;;;5033907;28;20489;-81
2022/08/21 04:40:10;;;;;;;5.30;3.57;;;18.70;1.00;;;;;;5025794;28;20417;-81
2022/08/21 04:42:44;;;;;;;6.93;4.10;;;18.70;1.00;;;;;;5032919;28;20557;-80
2022/08/21 04:45:20;;;;;;;9.20;4.10;;;18.70;1.00;;;;;;5009834;28;20515;-81
2022/08/21 04:47:59;;;;;;;5.50;3.80;;;18.70;1.00;;;;;;5025684;28;20495;-81
2022/08/21 04:50:29;;;;;;;8.93;3.97;;;18.80;1.00;;;;;;5029521;28;20453;-82
2022/08/21 04:52:57;;;;;;;4.87;3.37;;;18.80;1.00;;;;;;5029843;28;20475;-80
2022/08/21 04:55:25;;;;;;;6.30;3.53;;;18.80;1.00;;;;;;5032322;28;20528;-81
2022/08/21 04:57:53;;;;;;;7.77;4.60;;;18.80;1.00;;;;;;5030365;28;20461;-80
2022/08/21 05:00:21;;;;;;;8.33;4.97;;;18.80;1.00;;;;;;5030688;28;21046;-80
2022/08/21 05:02:54;;;;;;;8.57;4.40;;;18.80;1.00;;;;;;5037124;28;20955;-80
2022/08/21 05:05:21;;;;;;;9.17;3.87;;;18.90;1.00;;;;;;5025116;28;20429;-79
2022/08/21 05:07:48;;;;;;;8.10;4.40;;;18.90;1.00;;;;;;5030543;28;20453;-80
2022/08/21 05:10:15;;;;;;;9.27;3.83;;;19.00;1.00;;;;;;5025461;28;20468;-81
2022/08/21 05:12:42;;;;;;;9.67;4.20;;;18.90;1.00;;;;;;5041118;28;20480;-80
2022/08/21 05:15:11;;;;;;;7.07;3.67;;;19.00;1.00;;;;;;5027479;28;20456;-80
2022/08/21 05:17:38;;;;;;;6.43;3.73;;;19.10;1.00;;;;;;5031314;28;20446;-80
2022/08/21 05:20:07;;;;;;;6.90;3.40;;;19.10;1.00;;;;;;5030765;28;21272;-80
2022/08/21 05:22:34;;;;;;;5.93;3.80;;;19.20;1.00;;;;;;5031255;28;20560;-80
2022/08/21 05:25:01;;;;;;;6.60;3.43;;;19.20;1.00;;;;;;5023477;28;20483;-79
2022/08/21 05:27:29;;;;;;;9.03;3.70;;;19.20;1.00;;;;;;5037099;28;20497;-81
2022/08/21 05:29:56;;;;;;;11.23;3.53;;;19.20;1.00;;;;;;5031399;28;20477;-80
2022/08/21 05:32:23;;;;;;;8.47;4.10;;;19.30;1.00;;;;;;5033577;28;20472;-80
2022/08/21 05:34:50;;;;;;;9.87;4.20;;;19.30;1.00;;;;;;5029311;28;20508;-79
2022/08/21 05:37:51;;;;;;;8.50;3.27;;;19.30;1.00;;;;;;5013421;28;20888;-80
2022/08/21 05:40:20;;;;;;;7.50;4.83;;;19.40;1.00;;;;;;5003239;28;20462;-80
2022/08/21 05:42:54;;;;;;;6.80;3.50;;;19.40;1.00;;;;;;5008672;28;20474;-79
2022/08/21 05:45:22;;;;;;;8.87;3.80;;;19.50;1.00;;;;;;5024063;28;20457;-79
2022/08/21 05:47:51;;;;;;;12.00;5.10;;;19.50;1.00;;;;;;5028577;28;20547;-80
2022/08/21 05:50:18;;;;;;;6.40;3.33;;;19.50;1.00;;;;;;5031581;28;20466;-80
2022/08/21 05:52:53;;;;;;;8.37;3.40;;;19.50;1.00;;;;;;5033782;28;20555;-80
2022/08/21 05:55:20;;;;;;;7.37;3.67;;;19.50;1.00;;;;;;5028125;28;20551;-80
2022/08/21 05:57:48;;;;;;;13.47;3.10;;;19.50;1.00;;;;;;5030231;28;21082;-80
2022/08/21 06:00:16;;;;;;;6.40;3.20;;;19.50;1.00;;;;;;5029214;28;20465;-80
2022/08/21 06:02:43;;;;;;;5.70;2.90;;;19.50;1.00;;;;;;5024893;28;20480;-80
2022/08/21 06:05:10;;;;;;;7.40;2.93;;;19.50;1.00;;;;;;5016741;28;20474;-80
2022/08/21 06:07:37;;;;;;;6.27;3.43;;;19.50;1.00;;;;;;5028672;28;20547;-79
2022/08/21 06:10:06;;;;;;;6.43;3.13;;;19.60;1.00;;;;;;5026538;28;20525;-79
2022/08/21 06:12:33;;;;;;;5.93;2.80;;;19.60;1.00;;;;;;5028443;28;20473;-81
2022/08/21 06:15:00;;;;;;;7.57;3.30;;;19.60;1.00;;;;;;5024176;28;21298;-80
2022/08/21 06:17:28;;;;;;;5.57;2.60;;;19.70;1.00;;;;;;5018984;28;20457;-80
2022/08/21 06:19:55;;;;;;;6.43;3.30;;;19.80;1.00;;;;;;5028490;28;20467;-81
2022/08/21 06:22:23;;;;;;;8.13;3.20;;;19.90;1.00;;;;;;5030721;28;20449;-80
2022/08/21 06:24:50;;;;;;;4.87;2.80;;;19.90;1.00;;;;;;5029132;28;20551;-80
2022/08/21 06:27:18;;;;;;;5.40;3.53;;;19.90;1.00;;;;;;5030105;28;20548;-80
2022/08/21 06:29:45;;;;;;;7.83;2.97;;;20.00;1.00;;;;;;5031359;28;21281;-80
2022/08/21 06:32:13;;;;;;;5.90;2.73;;;20.00;1.00;;;;;;5017682;28;20480;-80
2022/08/21 06:34:42;;;;;;;5.57;2.70;;;20.10;1.00;;;;;;5030917;28;20476;-81
2022/08/21 06:37:09;;;;;;;5.60;2.37;;;20.20;1.00;;;;;;5030063;28;20461;-80
2022/08/21 06:39:50;;;;;;;5.40;3.00;;;20.20;1.00;;;;;;5030745;28;20547;-80
2022/08/21 06:42:20;;;;;;;7.87;3.20;;;20.30;1.00;;;;;;5028322;28;20515;-80
2022/08/21 06:44:58;;;;;;;8.83;2.60;;;20.40;1.00;;;;;;5031823;28;20512;-80
2022/08/21 06:47:25;;;;;;;4.80;2.23;;;20.50;1.00;;;;;;5029613;28;20461;-80
2022/08/21 06:49:53;;;;;;;4.80;2.40;;;20.50;1.00;;;;;;5031083;28;20959;-80
2022/08/21 06:52:19;;;;;;;8.70;2.97;;;20.70;1.00;;;;;;5032460;28;20473;-80
2022/08/21 06:54:46;;;;;;;4.60;2.13;;;20.70;1.00;;;;;;5029838;28;20453;-80
2022/08/21 06:57:13;;;;;;;7.47;3.10;;;20.80;1.00;;;;;;5033800;28;20646;-80
2022/08/21 06:59:41;;;;;;;5.33;2.77;;;20.80;1.00;;;;;;5030288;28;20441;-80
2022/08/21 07:02:11;;;;;;;8.87;2.57;;;21.00;1.00;;;;;;5027062;28;20461;-80
2022/08/21 07:04:38;;;;;;;6.03;2.80;;;21.00;1.00;;;;;;5033763;28;20497;-80
2022/08/21 07:07:08;;;;;;;6.70;2.73;;;21.00;1.00;;;;;;5028508;28;21146;-80
2022/08/21 07:09:35;;;;;;;8.00;2.87;;;21.00;1.00;;;;;;5026348;28;20501;-80
2022/08/21 07:12:04;;;;;;;8.23;4.20;;;21.00;1.00;;;;;;5030983;28;20470;-80
2022/08/21 07:14:31;;;;;;;5.70;2.50;;;21.10;1.00;;;;;;5023390;28;20472;-80
2022/08/21 07:16:59;;;;;;;4.27;2.30;;;21.10;1.00;;;;;;5017159;28;20555;-80
2022/08/21 07:19:26;;;;;;;5.73;2.43;;;21.20;1.00;;;;;;5028205;28;20465;-80
2022/08/21 07:21:57;;;;;;;6.73;2.50;;;21.40;1.00;;;;;;5008226;28;20473;-80
2022/08/21 07:24:24;;;;;;;5.60;2.27;;;21.50;1.00;;;;;;5043021;28;20457;-79
2022/08/21 07:26:51;;;;;;;5.30;2.33;;;21.50;1.00;;;;;;5023610;28;20487;-79
2022/08/21 07:29:18;;;;;;;7.07;2.40;;;21.70;1.00;;;;;;5024427;28;20541;-80
2022/08/21 07:31:45;;;;;;;8.27;3.20;;;21.80;1.00;;;;;;5034204;28;20579;-79
2022/08/21 07:34:15;;;;;;;6.60;3.33;;;21.80;1.00;;;;;;5024652;28;20467;-80
2022/08/21 07:36:42;;;;;;;7.00;2.27;;;21.90;1.00;;;;;;5026905;28;20838;-80
2022/08/21 07:39:09;;;;;;;8.30;2.60;;;22.00;1.00;;;;;;5010628;28;20449;-80
2022/08/21 07:41:37;;;;;;;5.93;2.27;;;22.10;1.00;;;;;;5029037;28;20493;-79
2022/08/21 07:44:04;;;;;;;5.70;2.67;;;22.20;1.00;;;;;;5024595;28;21838;-80
2022/08/21 07:46:31;;;;;;;5.00;2.03;;;22.30;1.00;;;;;;5028508;28;21326;-81
2022/08/21 07:48:58;;;;;;;4.73;2.20;;;22.30;1.00;;;;;;5019052;28;20481;-80
2022/08/21 07:51:28;;;;;;;5.33;2.23;;;22.40;1.00;;;;;;5030898;28;20488;-80
2022/08/21 07:53:59;;;;;;;6.23;2.73;;;22.50;1.00;;;;;;5025741;28;21307;-79
2022/08/21 07:56:26;;;;;;;5.47;2.20;;;22.60;1.00;;;;;;5030820;28;20483;-78
2022/08/21 07:58:53;;;;;;;12.50;8.40;;;22.70;1.00;;;;;;5028530;28;20519;-79
2022/08/21 08:01:20;;;;;;;6.57;2.07;;;22.80;1.00;;;;;;5031208;28;20992;-79
2022/08/21 08:03:47;;;;;;;5.40;2.20;;;22.80;1.00;;;;;;5029616;28;20449;-80
2022/08/21 08:06:16;;;;;;;4.60;2.00;;;22.80;1.00;;;;;;5030400;28;20532;-81
2022/08/21 08:08:45;;;;;;;7.70;2.57;;;22.90;1.00;;;;;;5032644;28;20457;-80
2022/08/21 08:11:15;;;;;;;5.43;2.27;;;22.90;1.00;;;;;;5030263;28;20473;-81
2022/08/21 08:13:43;;;;;;;14.93;3.10;;;23.00;1.00;;;;;;5027950;28;20485;-79
2022/08/21 08:16:11;;;;;;;6.03;1.93;;;23.10;1.00;;;;;;5026391;28;20574;-79
2022/08/21 08:18:38;;;;;;;7.10;2.63;;;23.20;1.00;;;;;;5029105;28;20457;-79
2022/08/21 08:21:05;;;;;;;5.00;1.80;;;23.30;1.00;;;;;;5014108;28;20564;-80
2022/08/21 08:24:00;;;;;;;5.60;2.30;;;23.40;1.00;;;;;;5029295;28;20548;-80
2022/08/21 08:26:32;;;;;;;5.60;2.23;;;23.40;1.00;;;;;;5031696;28;20952;-79
2022/08/21 08:28:59;;;;;;;4.73;2.13;;;23.50;1.00;;;;;;5028549;28;20478;-79
2022/08/21 08:31:26;;;;;;;9.50;2.57;;;23.70;1.00;;;;;;5010567;28;20477;-79
2022/08/21 08:33:53;;;;;;;5.37;2.27;;;23.80;1.00;;;;;;5028133;28;20547;-80
2022/08/21 08:36:19;;;;;;;5.97;2.50;;;24.00;1.00;;;;;;5032238;28;20461;-80
2022/08/21 08:38:48;;;;;;;5.73;2.13;;;24.20;1.00;;;;;;5032555;28;20641;-80
2022/08/21 08:41:18;;;;;;;5.83;2.57;;;24.40;1.00;;;;;;5032323;28;20473;-80
2022/08/21 08:43:51;;;;;;;5.53;2.03;;;24.50;1.00;;;;;;5013996;28;20466;-80
2022/08/21 08:46:23;;;;;;;7.50;2.87;;;24.70;1.00;;;;;;5033273;28;20469;-79
2022/08/21 08:48:53;;;;;;;6.50;2.50;;;24.80;1.00;;;;;;5028737;28;21197;-83
2022/08/21 08:51:26;;;;;;;6.63;2.03;;;24.90;1.00;;;;;;5030538;28;20517;-81
2022/08/21 08:53:56;;;;;;;5.33;2.17;;;24.90;1.00;;;;;;5028840;28;20483;-81
2022/08/21 08:56:31;;;;;;;7.47;2.80;;;25.00;1.00;;;;;;5035593;28;20604;-81
2022/08/21 08:59:03;;;;;;;7.17;2.50;;;24.90;1.00;;;;;;5032766;28;20481;-81
2022/08/21 09:01:30;;;;;;;7.63;2.60;;;24.90;1.00;;;;;;5030892;28;20461;-81
2022/08/21 09:03:58;;;;;;;5.07;2.13;;;24.90;1.00;;;;;;5025617;28;20524;-80
2022/08/21 09:06:41;;;;;;;6.53;2.50;;;24.70;1.00;;;;;;5023169;28;20515;-81
2022/08/21 09:09:22;;;;;;;6.33;3.57;;;24.70;1.00;;;;;;5032763;28;20456;-81
2022/08/21 09:11:57;;;;;;;6.13;3.00;;;24.70;1.00;;;;;;5028546;28;20499;-81
2022/08/21 09:14:34;;;;;;;6.97;2.17;;;24.90;1.00;;;;;;5024962;28;20544;-80
2022/08/21 09:17:14;;;;;;;5.57;2.13;;;25.00;1.00;;;;;;5027447;28;20480;-80
2022/08/21 09:19:57;;;;;;;8.47;3.03;;;25.10;1.00;;;;;;5030530;28;20491;-82
2022/08/21 09:22:34;;;;;;;8.47;4.27;;;25.00;1.00;;;;;;5027188;28;20457;-81
2022/08/21 09:25:09;;;;;;;8.27;4.77;;;25.10;1.00;;;;;;5028662;28;20531;-81
2022/08/21 09:27:36;;;;;;;8.73;2.70;;;25.20;1.00;;;;;;5030261;28;20432;-81
2022/08/21 09:30:08;;;;;;;8.53;2.70;;;25.10;1.00;;;;;;5030636;28;20907;-82
2022/08/21 09:32:38;;;;;;;8.27;3.13;;;25.00;1.00;;;;;;5028044;28;20477;-79
2022/08/21 09:35:09;;;;;;;5.70;2.47;;;25.00;1.00;;;;;;5028968;28;20457;-78
2022/08/21 09:37:51;;;;;;;6.23;2.20;;;25.00;1.00;;;;;;5027478;28;20555;-81
2022/08/21 09:40:31;;;;;;;7.53;2.40;;;25.20;1.00;;;;;;5030233;28;20527;-80
2022/08/21 09:43:00;;;;;;;8.20;2.50;;;25.20;1.00;;;;;;5028329;28;20477;-80
2022/08/21 09:45:31;;;;;;;7.70;2.57;;;25.30;1.00;;;;;;5030657;28;20957;-80
2022/08/21 09:48:12;;;;;;;7.20;2.40;;;25.30;1.00;;;;;;5028370;28;21694;-81
2022/08/21 09:50:40;;;;;;;6.50;2.10;;;25.20;1.00;;;;;;5028252;28;20554;-80
2022/08/21 09:53:18;;;;;;;6.33;1.80;;;25.10;1.00;;;;;;5029417;28;20484;-80
2022/08/21 09:58:41;;;;;;;7.40;2.80;;;25.50;1.00;;;;;;5030483;28;20457;-81
2022/08/21 10:01:16;;;;;;;6.13;2.30;;;25.70;1.00;;;;;;5024288;28;20464;-80
2022/08/21 10:03:43;;;;;;;7.13;2.57;;;25.80;1.00;;;;;;5027069;28;20476;-81
2022/08/21 10:06:13;;;;;;;6.97;2.20;;;26.10;1.00;;;;;;5027666;28;20449;-79
2022/08/21 10:08:41;;;;;;;10.47;2.57;;;26.40;1.00;;;;;;5027122;28;20501;-81
2022/08/21 10:11:10;;;;;;;7.10;2.80;;;26.70;1.00;;;;;;5020228;28;20525;-80
2022/08/21 10:13:53;;;;;;;8.47;2.57;;;27.00;1.00;;;;;;5030462;28;20550;-81
2022/08/21 10:16:34;;;;;;;7.10;2.27;;;27.10;1.00;;;;;;5024423;28;20445;-80
2022/08/21 10:19:16;;;;;;;6.83;2.40;;;27.30;1.00;;;;;;5023201;28;20897;-80
2022/08/21 10:21:57;;;;;;;8.63;2.60;;;27.40;1.00;;;;;;5028131;28;20549;-81
2022/08/21 10:24:32;;;;;;;7.97;2.40;;;27.30;1.00;;;;;;5030530;28;20481;-80
2022/08/21 10:27:10;;;;;;;7.97;2.60;;;27.40;1.00;;;;;;5029419;28;20492;-83
2022/08/21 10:29:47;;;;;;;8.20;2.73;;;27.60;1.00;;;;;;5029897;28;20481;-82
2022/08/21 10:32:30;;;;;;;6.00;2.30;;;27.70;1.00;;;;;;5032334;28;20481;-80
2022/08/21 10:35:06;;;;;;;9.70;7.03;;;27.50;1.00;;;;;;5031370;28;21362;-80
2022/08/21 10:37:42;;;;;;;7.30;2.90;;;27.50;1.00;;;;;;5030057;28;20464;-81
2022/08/21 10:40:22;;;;;;;8.10;2.70;;;27.70;1.00;;;;;;5032783;28;21305;-80
2022/08/21 10:43:00;;;;;;;6.80;2.33;;;27.90;1.00;;;;;;5028719;28;20468;-80
2022/08/21 10:45:39;;;;;;;6.30;2.17;;;28.10;1.00;;;;;;5031794;28;20548;-80
2022/08/21 10:48:15;;;;;;;7.17;2.60;;;28.40;1.00;;;;;;5031147;28;20847;-80
2022/08/21 10:50:49;;;;;;;7.67;2.50;;;28.70;1.00;;;;;;5033365;28;20888;-79
2022/08/21 10:53:37;;;;;;;9.20;2.47;;;28.80;1.00;;;;;;5032623;28;21725;-80
2022/08/21 10:56:15;;;;;;;6.70;2.13;;;29.40;1.00;;;;;;5033756;28;20474;-79
2022/08/21 10:58:52;;;;;;;6.93;2.87;;;29.70;1.00;;;;;;5041051;28;20471;-79
2022/08/21 11:01:27;;;;;;;8.20;2.70;;;29.80;1.00;;;;;;5032683;28;20463;-80
2022/08/21 11:04:08;;;;;;;6.03;1.80;;;29.70;1.00;;;;;;5029960;28;20473;-81
2022/08/21 11:06:39;;;;;;;5.50;1.77;;;29.60;1.00;;;;;;5035083;28;21345;-79
2022/08/21 11:09:12;;;;;;;7.00;1.83;;;29.50;1.00;;;;;;5034063;28;20433;-79
2022/08/21 11:11:43;;;;;;;7.13;2.53;;;29.60;1.00;;;;;;5031026;28;20485;-80
2022/08/21 11:14:17;;;;;;;6.00;1.83;;;29.90;1.00;;;;;;5027641;28;20460;-81
2022/08/21 11:16:47;;;;;;;6.87;2.37;;;30.40;1.00;;;;;;5032545;28;20500;-78
2022/08/21 11:19:22;;;;;;;7.93;2.63;;;31.30;1.00;;;;;;5029750;28;20456;-82
2022/08/21 11:21:55;;;;;;;6.70;2.40;;;31.90;1.00;;;;;;5031348;28;20583;-80
2022/08/21 11:24:34;;;;;;;6.53;1.93;;;32.10;1.00;;;;;;5030069;28;21581;-80
2022/08/21 11:27:14;;;;;;;6.60;2.20;;;31.90;1.00;;;;;;5033148;28;20461;-79
2022/08/21 11:29:44;;;;;;;6.10;2.20;;;31.40;1.00;;;;;;5034823;28;20477;-81
2022/08/21 11:32:43;;;;;;;7.50;2.20;;;31.10;1.00;;;;;;5034528;28;20523;-81
2022/08/21 11:35:18;;;;;;;7.50;2.33;;;31.20;1.00;;;;;;5034064;28;20445;-80
2022/08/21 11:38:07;;;;;;;8.20;1.90;;;31.60;1.00;;;;;;5038103;28;20479;-81
2022/08/21 11:41:04;;;;;;;8.57;2.23;;;32.10;1.00;;;;;;5034833;28;24293;-80
2022/08/21 11:43:39;;;;;;;6.67;2.30;;;32.50;1.00;;;;;;5039457;28;21342;-82
2022/08/21 11:46:17;;;;;;;5.77;1.70;;;32.70;1.00;;;;;;5031770;28;20464;-81
2022/08/21 11:48:55;;;;;;;6.37;1.90;;;33.30;1.00;;;;;;5031205;28;20501;-80
2022/08/21 11:51:33;;;;;;;5.63;1.73;;;34.30;1.00;;;;;;5032869;28;21414;-81
2022/08/21 11:54:09;;;;;;;5.80;1.40;;;35.30;1.00;;;;;;5028761;28;20471;-80
2022/08/21 11:56:43;;;;;;;8.07;2.40;;;35.80;1.00;;;;;;5033813;28;20476;-81
2022/08/21 11:59:16;;;;;;;7.53;2.20;;;36.50;1.00;;;;;;5036188;28;20477;-81
2022/08/21 12:01:46;;;;;;;6.40;1.40;;;37.20;1.00;;;;;;5030863;28;25115;-81
2022/08/21 12:04:21;;;;;;;5.43;1.70;;;37.60;1.00;;;;;;5036393;28;20420;-81
2022/08/21 12:06:51;;;;;;;5.30;1.90;;;38.20;1.00;;;;;;5034003;28;20469;-79
2022/08/21 12:09:34;;;;;;;5.20;1.60;;;38.20;1.00;;;;;;5028759;28;20508;-82
2022/08/21 12:12:05;;;;;;;5.60;2.20;;;38.00;1.00;;;;;;5031271;28;20919;-81
2022/08/21 12:14:41;;;;;;;7.83;4.03;;;37.60;1.00;;;;;;5033582;28;20484;-81
2022/08/21 12:17:17;;;;;;;4.97;1.50;;;37.50;1.00;;;;;;5032720;28;21046;-80
2022/08/21 12:19:45;;;;;;;5.37;1.70;;;37.70;1.00;;;;;;5031693;28;20472;-80
2022/08/21 12:22:15;;;;;;;5.17;1.40;;;38.60;1.00;;;;;;5030215;28;20452;-81
2022/08/21 12:24:45;;;;;;;6.63;1.60;;;39.40;1.00;;;;;;5035229;28;20511;-81
2022/08/21 12:27:25;;;;;;;17.10;15.30;;;40.00;1.00;;;;;;5032398;28;20828;-81
2022/08/21 12:29:55;;;;;;;5.57;2.30;;;40.50;1.00;;;;;;5033879;28;20441;-81
2022/08/21 12:32:26;;;;;;;5.43;1.87;;;40.70;1.00;;;;;;5039300;28;20502;-82
2022/08/21 12:34:58;;;;;;;5.10;1.77;;;41.10;1.00;;;;;;5030598;28;20465;-80
2022/08/21 12:37:38;;;;;;;7.23;2.40;;;41.70;1.00;;;;;;5034302;28;20442;-80
2022/08/21 12:40:12;;;;;;;4.60;1.17;;;42.10;1.00;;;;;;5030635;28;20472;-82
2022/08/21 12:42:43;;;;;;;4.73;1.20;;;42.70;1.00;;;;;;5033552;28;20498;-80
2022/08/21 12:45:30;;;;;;;5.43;1.20;;;43.20;1.00;;;;;;5040085;28;20428;-81
2022/08/21 12:48:01;;;;;;;5.73;2.33;;;42.20;1.00;;;;;;5044007;28;20452;-80
2022/08/21 12:50:36;;;;;;;4.60;1.33;;;42.10;1.00;;;;;;5038022;28;20473;-80
2022/08/21 12:53:09;;;;;;;5.00;2.00;;;41.90;1.00;;;;;;5034705;28;20543;-78
2022/08/21 12:55:36;;;;;;;6.37;2.10;;;41.90;1.00;;;;;;5036920;28;20497;-80
2022/08/21 12:58:05;;;;;;;13.77;2.50;;;42.20;1.00;;;;;;5031271;28;20546;-79
2022/08/21 13:00:35;;;;;;;7.07;1.80;;;42.50;1.00;;;;;;5034516;28;20597;-80
2022/08/21 13:03:02;;;;;;;5.00;1.27;;;42.50;1.00;;;;;;5034788;28;20496;-80
2022/08/21 13:05:34;;;;;;;5.60;1.47;;;42.50;1.00;;;;;;5039083;28;20506;-80
2022/08/21 13:08:06;;;;;;;5.20;1.30;;;42.30;1.00;;;;;;5033579;28;21060;-78
2022/08/21 13:10:35;;;;;;;4.87;1.10;;;42.90;1.00;;;;;;5031514;28;20504;-79
2022/08/21 13:13:06;;;;;;;5.67;1.83;;;43.00;1.00;;;;;;5019737;28;20509;-79
2022/08/21 13:15:36;;;;;;;4.73;1.30;;;43.00;1.00;;;;;;5031561;28;20540;-80